createdAt,value
2019-03-24T00:02:28.705Z,11.50
2019-03-24T00:04:59.720Z,11.28
2019-03-24T00:07:30.834Z,10.82
2019-03-24T00:10:02.844Z,11.53
2019-03-24T00:12:33.955Z,11.57
2019-03-24T00:15:09.378Z,10.93
2019-03-24T00:17:40.997Z,10.93
2019-03-24T00:20:13.718Z,17.52
2019-03-24T00:22:44.838Z,11.33
2019-03-24T00:25:15.949Z,10.72
2019-03-24T00:27:47.091Z,11.38
2019-03-24T00:30:18.235Z,10.95
2019-03-24T00:32:49.319Z,12.07
2019-03-24T00:35:20.452Z,10.88
2019-03-24T00:37:51.623Z,11.38
2019-03-24T00:40:22.834Z,11.40
2019-03-24T00:42:54.398Z,11.53
2019-03-24T00:45:36.215Z,11.15
2019-03-24T00:47:58.411Z,12.15
2019-03-24T00:50:29.535Z,12.05
2019-03-24T00:53:00.699Z,11.03
2019-03-24T00:55:31.744Z,11.08
2019-03-24T00:58:02.803Z,10.25
2019-03-24T01:00:45.317Z,10.93
2019-03-24T01:03:16.602Z,11.03
2019-03-24T01:05:47.835Z,11.80
2019-03-24T01:08:19.159Z,11.05
2019-03-24T01:10:50.278Z,11.08
2019-03-24T01:13:23.242Z,11.05
2019-03-24T01:15:54.307Z,11.18
2019-03-24T01:18:25.455Z,10.28
2019-03-24T01:20:56.602Z,10.70
2019-03-24T01:23:27.666Z,11.28
2019-03-24T01:25:58.759Z,10.32
2019-03-24T01:28:30.026Z,11.25
2019-03-24T01:31:01.078Z,11.28
2019-03-24T01:33:32.254Z,11.53
2019-03-24T01:36:03.463Z,10.35
2019-03-24T01:38:34.545Z,11.08
2019-03-24T01:41:08.001Z,10.85
2019-03-24T01:43:39.745Z,10.43
2019-03-24T01:46:10.803Z,10.43
2019-03-24T01:48:42.197Z,10.53
2019-03-24T01:51:13.360Z,10.90
2019-03-24T01:53:45.529Z,11.28
2019-03-24T01:56:16.706Z,11.30
2019-03-24T01:58:47.879Z,11.28
2019-03-24T02:01:19.107Z,11.55
2019-03-24T02:03:50.444Z,11.00
2019-03-24T02:06:21.463Z,10.03
2019-03-24T02:08:52.624Z,10.82
2019-03-24T02:11:23.837Z,10.15
2019-03-24T02:13:54.876Z,10.48
2019-03-24T02:16:26.029Z,9.78
2019-03-24T02:18:57.329Z,10.63
2019-03-24T02:21:28.451Z,10.28
2019-03-24T02:24:00.204Z,10.40
2019-03-24T02:26:31.374Z,10.60
2019-03-24T02:29:02.558Z,10.93
2019-03-24T02:31:34.768Z,10.65
2019-03-24T02:34:05.779Z,10.88
2019-03-24T02:36:37.364Z,11.33
2019-03-24T02:39:08.652Z,11.53
2019-03-24T02:41:39.779Z,10.98
2019-03-24T02:44:11.040Z,11.05
2019-03-24T02:46:42.401Z,11.38
2019-03-24T02:49:14.494Z,10.18
2019-03-24T02:51:45.658Z,10.68
2019-03-24T02:54:16.942Z,9.65
2019-03-24T02:56:47.929Z,9.83
2019-03-24T02:59:20.316Z,9.93
2019-03-24T03:01:51.593Z,9.25
2019-03-24T03:04:22.680Z,10.03
2019-03-24T03:06:53.782Z,10.05
2019-03-24T03:09:26.468Z,9.18
2019-03-24T03:11:57.494Z,9.60
2019-03-24T03:14:28.583Z,9.63
2019-03-24T03:16:59.768Z,9.98
2019-03-24T03:19:31.002Z,9.98
2019-03-24T03:22:02.181Z,9.90
2019-03-24T03:24:33.441Z,10.08
2019-03-24T03:27:04.666Z,10.25
2019-03-24T03:29:37.693Z,10.13
2019-03-24T03:32:08.978Z,9.53
2019-03-24T03:34:40.077Z,9.83
2019-03-24T03:37:11.193Z,9.55
2019-03-24T03:39:42.388Z,9.88
2019-03-24T03:42:13.503Z,9.00
2019-03-24T03:44:44.722Z,9.68
2019-03-24T03:47:15.794Z,9.78
2019-03-24T03:49:46.867Z,9.43
2019-03-24T03:52:17.969Z,9.55
2019-03-24T03:54:49.110Z,9.50
2019-03-24T03:57:20.165Z,8.93
2019-03-24T03:59:51.433Z,8.98
2019-03-24T04:02:22.678Z,9.73
2019-03-24T04:04:53.833Z,9.35
2019-03-24T04:07:24.970Z,9.48
2019-03-24T04:09:56.166Z,9.55
2019-03-24T04:12:27.217Z,9.28
2019-03-24T04:14:58.306Z,9.68
2019-03-24T04:17:29.469Z,9.18
2019-03-24T04:20:00.710Z,9.20
2019-03-24T04:22:31.828Z,8.85
2019-03-24T04:25:03.055Z,8.83
2019-03-24T04:27:34.186Z,9.60
2019-03-24T04:30:06.798Z,9.40
2019-03-24T04:32:38.013Z,9.20
2019-03-24T04:35:09.117Z,9.70
2019-03-24T04:37:40.326Z,9.78
2019-03-24T04:40:12.939Z,9.30
2019-03-24T04:42:44.183Z,9.15
2019-03-24T04:45:15.315Z,9.60
2019-03-24T04:47:46.437Z,10.05
2019-03-24T04:50:17.613Z,9.83
2019-03-24T04:52:48.689Z,9.30
2019-03-24T04:55:19.980Z,8.75
2019-03-24T04:57:51.143Z,9.25
2019-03-24T05:00:25.630Z,10.10
2019-03-24T05:02:56.867Z,9.85
2019-03-24T05:05:28.092Z,8.45
2019-03-24T05:07:59.206Z,9.28
2019-03-24T05:10:30.313Z,8.98
2019-03-24T05:13:01.453Z,9.10
2019-03-24T05:15:32.658Z,9.60
2019-03-24T05:18:06.693Z,9.15
2019-03-24T05:20:37.948Z,9.65
2019-03-24T05:23:08.947Z,9.23
2019-03-24T05:25:40.024Z,9.38
2019-03-24T05:28:11.088Z,9.08
2019-03-24T05:30:42.237Z,8.60
2019-03-24T05:33:13.364Z,9.33
2019-03-24T05:35:44.438Z,8.73
2019-03-24T05:38:15.551Z,9.90
2019-03-24T05:40:46.622Z,8.13
2019-03-24T05:43:17.939Z,7.85
2019-03-24T05:45:49.015Z,8.78
2019-03-24T05:48:20.136Z,9.45
2019-03-24T05:50:51.239Z,8.45
2019-03-24T05:53:22.294Z,9.18
2019-03-24T05:55:53.397Z,9.10
2019-03-24T05:58:25.527Z,8.73
2019-03-24T06:00:56.884Z,9.10
2019-03-24T06:03:27.958Z,9.63
2019-03-24T06:05:59.064Z,9.45
2019-03-24T06:08:30.184Z,9.40
2019-03-24T06:11:01.503Z,9.13
2019-03-24T06:13:32.611Z,8.63
2019-03-24T06:16:05.288Z,9.00
2019-03-24T06:18:36.431Z,9.10
2019-03-24T06:21:07.554Z,8.93
2019-03-24T06:23:40.362Z,9.18
2019-03-24T06:26:11.477Z,9.23
2019-03-24T06:28:44.883Z,9.18
2019-03-24T06:31:17.665Z,8.25
2019-03-24T06:33:48.854Z,9.70
2019-03-24T06:36:19.895Z,9.53
2019-03-24T06:38:51.039Z,8.88
2019-03-24T06:41:23.048Z,9.20
2019-03-24T06:43:54.350Z,9.80
2019-03-24T06:46:25.513Z,9.00
2019-03-24T06:48:56.679Z,8.70
2019-03-24T06:51:27.802Z,8.83
2019-03-24T06:53:58.902Z,8.23
2019-03-24T06:56:30.001Z,8.38
2019-03-24T06:59:01.904Z,7.65
2019-03-24T07:01:33.244Z,7.22
2019-03-24T07:04:04.403Z,8.63
2019-03-24T07:06:37.114Z,7.83
2019-03-24T07:09:08.247Z,8.05
2019-03-24T07:11:39.320Z,7.40
2019-03-24T07:14:10.433Z,7.22
2019-03-24T07:16:41.465Z,7.00
2019-03-24T07:19:12.624Z,7.10
2019-03-24T07:21:43.558Z,6.62
2019-03-24T07:24:15.697Z,7.30
2019-03-24T07:26:46.788Z,6.78
2019-03-24T07:29:17.908Z,7.00
2019-03-24T07:31:50.762Z,6.97
2019-03-24T07:34:21.900Z,7.15
2019-03-24T07:36:52.875Z,6.70
2019-03-24T07:39:23.849Z,6.55
2019-03-24T07:41:54.903Z,5.72
2019-03-24T07:44:25.955Z,5.70
2019-03-24T07:46:58.005Z,6.03
2019-03-24T07:49:29.146Z,5.78
2019-03-24T07:52:00.430Z,4.40
2019-03-24T07:54:31.408Z,4.65
2019-03-24T07:57:02.542Z,4.83
2019-03-24T07:59:34.475Z,5.40
2019-03-24T08:02:05.409Z,5.85
2019-03-24T08:04:36.612Z,5.90
2019-03-24T08:07:07.695Z,5.55
2019-03-24T08:09:38.861Z,5.80
2019-03-24T08:12:10.429Z,5.50
2019-03-24T08:14:45.615Z,6.15
2019-03-24T08:17:16.658Z,4.87
2019-03-24T08:19:48.128Z,4.97
2019-03-24T08:22:20.348Z,4.80
2019-03-24T08:24:52.236Z,4.60
2019-03-24T08:27:29.862Z,5.42
2019-03-24T08:30:01.005Z,5.10
2019-03-24T08:32:32.662Z,4.97
2019-03-24T08:35:05.146Z,5.30
2019-03-24T08:37:36.574Z,5.30
2019-03-24T08:40:07.696Z,5.40
2019-03-24T08:42:39.721Z,4.75
2019-03-24T08:45:13.942Z,6.37
2019-03-24T08:47:44.958Z,5.20
2019-03-24T08:50:15.956Z,5.60
2019-03-24T08:52:47.141Z,4.83
2019-03-24T08:55:18.104Z,5.53
2019-03-24T08:57:49.462Z,5.75
2019-03-24T09:00:30.169Z,5.80
2019-03-24T09:02:53.519Z,4.92
2019-03-24T09:05:24.466Z,5.17
2019-03-24T09:07:55.548Z,4.50
2019-03-24T09:10:26.622Z,5.00
2019-03-24T09:12:57.546Z,5.30
2019-03-24T09:15:28.653Z,5.62
2019-03-24T09:17:59.706Z,5.53
2019-03-24T09:20:40.971Z,5.62
2019-03-24T09:23:04.259Z,24.10
2019-03-24T09:25:36.099Z,14.60
2019-03-24T09:28:09.320Z,5.72
2019-03-24T09:30:40.885Z,5.37
2019-03-24T09:33:11.885Z,5.22
2019-03-24T09:35:42.988Z,5.37
2019-03-24T09:38:14.029Z,5.67
2019-03-24T09:40:44.906Z,5.70
2019-03-24T09:43:16.020Z,5.33
2019-03-24T09:45:47.081Z,5.42
2019-03-24T09:48:18.481Z,5.35
2019-03-24T09:50:49.348Z,5.78
2019-03-24T09:53:21.479Z,5.40
2019-03-24T09:55:54.365Z,5.25
2019-03-24T09:58:25.433Z,5.70
2019-03-24T10:00:56.513Z,15.75
2019-03-24T10:03:27.905Z,5.47
2019-03-24T10:05:58.814Z,4.75
2019-03-24T10:08:29.909Z,5.00
2019-03-24T10:11:01.075Z,4.87
2019-03-24T10:13:32.287Z,5.22
2019-03-24T10:16:03.448Z,4.92
2019-03-24T10:18:34.379Z,5.03
2019-03-24T10:21:05.399Z,5.15
2019-03-24T10:23:36.519Z,5.33
2019-03-24T10:26:07.571Z,5.17
2019-03-24T10:28:38.553Z,5.03
2019-03-24T10:31:09.867Z,8.25
2019-03-24T10:33:40.970Z,5.20
2019-03-24T10:36:12.385Z,5.78
2019-03-24T10:38:43.628Z,5.05
2019-03-24T10:41:14.601Z,5.40
2019-03-24T10:43:45.616Z,5.37
2019-03-24T10:46:16.705Z,4.55
2019-03-24T10:48:47.874Z,4.95
2019-03-24T10:51:18.911Z,5.40
2019-03-24T10:53:50.083Z,5.03
2019-03-24T10:56:21.093Z,4.65
2019-03-24T10:58:51.998Z,5.08
2019-03-24T11:01:23.126Z,5.40
2019-03-24T11:03:54.268Z,5.58
2019-03-24T11:06:25.389Z,6.10
2019-03-24T11:08:56.457Z,7.25
2019-03-24T11:11:27.457Z,6.90
2019-03-24T11:13:58.989Z,6.87
2019-03-24T11:16:30.195Z,7.92
2019-03-24T11:19:01.570Z,9.05
2019-03-24T11:21:32.627Z,8.70
2019-03-24T11:24:04.040Z,11.20
2019-03-24T11:26:35.307Z,8.88
2019-03-24T11:29:07.569Z,7.25
2019-03-24T11:31:38.762Z,5.62
2019-03-24T11:34:09.868Z,6.17
2019-03-24T11:36:41.083Z,55.23
2019-03-24T11:39:12.300Z,5.65
2019-03-24T11:41:43.346Z,6.03
2019-03-24T11:44:14.687Z,7.58
2019-03-24T11:46:45.814Z,8.33
2019-03-24T11:49:16.152Z,8.90
2019-03-24T11:51:47.285Z,7.87
2019-03-24T11:54:18.615Z,5.72
2019-03-24T11:56:49.732Z,5.45
2019-03-24T11:59:20.834Z,4.60
2019-03-24T12:01:51.795Z,4.78
2019-03-24T12:04:23.090Z,4.90
2019-03-24T12:06:54.178Z,4.78
2019-03-24T12:09:25.255Z,7.83
2019-03-24T12:11:56.375Z,7.20
2019-03-24T12:14:27.595Z,5.15
2019-03-24T12:16:58.643Z,4.58
2019-03-24T12:19:30.622Z,4.65
2019-03-24T12:22:01.519Z,4.80
2019-03-24T12:24:32.633Z,5.12
2019-03-24T12:27:03.687Z,4.97
2019-03-24T12:29:34.735Z,4.72
2019-03-24T12:32:05.658Z,5.40
2019-03-24T12:34:36.757Z,5.12
2019-03-24T12:37:07.966Z,4.70
2019-03-24T12:39:39.133Z,4.78
2019-03-24T12:42:10.079Z,4.80
2019-03-24T12:44:41.326Z,6.60
2019-03-24T12:47:13.051Z,6.10
2019-03-24T12:49:44.049Z,5.58
2019-03-24T12:52:15.131Z,5.50
2019-03-24T12:54:46.136Z,5.87
2019-03-24T12:57:17.323Z,5.30
2019-03-24T12:59:48.357Z,5.55
2019-03-24T13:02:19.773Z,6.12
2019-03-24T13:04:51.053Z,6.45
2019-03-24T13:07:22.276Z,6.53
2019-03-24T13:09:54.050Z,6.47
2019-03-24T13:12:25.372Z,5.70
2019-03-24T13:14:56.311Z,6.25
2019-03-24T13:17:27.367Z,5.80
2019-03-24T13:19:58.462Z,5.47
2019-03-24T13:22:29.493Z,5.92
2019-03-24T13:25:01.882Z,5.97
2019-03-24T13:27:33.069Z,6.40
2019-03-24T13:30:05.915Z,6.45
2019-03-24T13:32:37.049Z,7.92
2019-03-24T13:37:57.002Z,6.17
2019-03-24T13:40:28.865Z,6.55
2019-03-24T13:42:59.920Z,8.80
2019-03-24T13:45:31.131Z,7.72
2019-03-24T13:48:02.328Z,6.17
2019-03-24T13:50:33.391Z,6.42
2019-03-24T13:53:05.047Z,6.58
2019-03-24T13:55:39.217Z,6.72
2019-03-24T13:58:15.688Z,6.75
2019-03-24T14:00:47.126Z,6.60
2019-03-24T14:03:18.194Z,5.70
2019-03-24T14:05:49.297Z,5.78
2019-03-24T14:08:20.317Z,6.50
2019-03-24T14:10:51.328Z,6.30
2019-03-24T14:13:22.555Z,6.30
2019-03-24T14:15:55.503Z,6.75
2019-03-24T14:18:26.558Z,6.60
2019-03-24T14:20:57.743Z,6.53
2019-03-24T14:23:28.786Z,6.97
2019-03-24T14:25:59.754Z,7.62
2019-03-24T14:28:30.789Z,6.62
2019-03-24T14:31:01.821Z,6.97
2019-03-24T14:33:34.128Z,6.92
2019-03-24T14:36:05.380Z,7.17
2019-03-24T14:38:36.473Z,7.00
2019-03-24T14:41:08.869Z,7.65
2019-03-24T14:43:41.076Z,7.08
2019-03-24T14:46:12.245Z,16.15
2019-03-24T14:48:43.486Z,7.58
2019-03-24T14:51:14.704Z,7.78
2019-03-24T14:53:45.880Z,8.25
2019-03-24T14:56:16.963Z,7.87
2019-03-24T14:58:48.080Z,8.43
2019-03-24T15:01:19.089Z,9.30
2019-03-24T15:03:50.124Z,9.03
2019-03-24T15:06:22.337Z,9.15
2019-03-24T15:08:53.602Z,10.00
2019-03-24T15:11:25.892Z,9.50
2019-03-24T15:13:57.000Z,10.88
2019-03-24T15:16:28.162Z,12.35
2019-03-24T15:18:59.341Z,12.28
2019-03-24T15:21:30.535Z,11.57
2019-03-24T15:24:01.774Z,11.97
2019-03-24T15:26:33.017Z,11.78
2019-03-24T15:29:05.829Z,12.37
2019-03-24T15:31:37.454Z,12.35
2019-03-24T15:34:08.703Z,11.90
2019-03-24T15:36:39.942Z,12.05
2019-03-24T15:39:11.159Z,12.35
2019-03-24T15:41:43.525Z,12.23
2019-03-24T15:44:14.798Z,12.60
2019-03-24T15:46:46.902Z,13.88
2019-03-24T15:49:18.145Z,14.28
2019-03-24T15:51:49.220Z,15.80
2019-03-24T15:54:22.650Z,15.53
2019-03-24T15:56:53.794Z,16.45
2019-03-24T15:59:25.068Z,18.50
2019-03-24T16:01:56.219Z,16.75
2019-03-24T16:04:27.525Z,18.82
2019-03-24T16:06:59.145Z,18.50
2019-03-24T16:09:30.267Z,20.88
2019-03-24T16:12:01.459Z,19.95
2019-03-24T16:14:32.753Z,21.35
2019-03-24T16:17:03.929Z,21.80
2019-03-24T16:19:39.108Z,21.48
2019-03-24T16:22:11.993Z,22.77
2019-03-24T16:24:43.106Z,22.45
2019-03-24T16:27:17.210Z,22.20
2019-03-24T16:29:48.522Z,21.60
2019-03-24T16:32:23.244Z,22.52
2019-03-24T16:34:55.733Z,23.02
2019-03-24T16:37:27.824Z,23.25
2019-03-24T16:39:59.524Z,22.02
2019-03-24T16:42:32.947Z,23.35
2019-03-24T16:45:05.213Z,24.20
2019-03-24T16:47:36.409Z,24.60
2019-03-24T16:50:07.968Z,28.02
2019-03-24T16:52:39.143Z,30.55
2019-03-24T16:55:12.229Z,33.70
2019-03-24T16:57:44.280Z,34.00
2019-03-24T17:00:15.419Z,35.05
2019-03-24T17:02:46.773Z,35.25
2019-03-24T17:05:18.011Z,36.48
2019-03-24T17:07:50.208Z,35.00
2019-03-24T17:10:21.645Z,35.10
2019-03-24T17:12:52.704Z,33.78
2019-03-24T17:15:23.784Z,33.40
2019-03-24T17:17:55.035Z,35.78
2019-03-24T17:20:26.336Z,35.40
2019-03-24T17:22:57.518Z,33.67
2019-03-24T17:25:28.828Z,33.30
2019-03-24T17:28:00.604Z,33.67
2019-03-24T17:30:32.180Z,33.92
2019-03-24T17:33:03.741Z,33.70
2019-03-24T17:35:34.854Z,33.60
2019-03-24T17:38:06.116Z,32.53
2019-03-24T17:40:39.019Z,33.28
2019-03-24T17:43:12.135Z,31.50
2019-03-24T17:45:43.379Z,28.15
2019-03-24T17:48:14.724Z,28.17
2019-03-24T17:50:46.194Z,27.60
2019-03-24T17:53:17.453Z,26.25
2019-03-24T17:55:49.238Z,26.25
2019-03-24T17:58:20.721Z,25.23
2019-03-24T18:00:54.372Z,24.57
2019-03-24T18:03:28.383Z,23.62
2019-03-24T18:06:00.983Z,23.60
2019-03-24T18:08:32.315Z,22.35
2019-03-24T18:11:03.618Z,23.32
2019-03-24T18:13:34.879Z,22.90
2019-03-24T18:16:06.121Z,23.57
2019-03-24T18:18:37.241Z,22.27
2019-03-24T18:21:08.473Z,22.40
2019-03-24T18:23:39.659Z,22.20
2019-03-24T18:26:10.808Z,21.10
2019-03-24T18:28:42.049Z,19.73
2019-03-24T18:31:13.374Z,22.85
2019-03-24T18:33:44.884Z,18.00
2019-03-24T18:36:16.018Z,15.72
2019-03-24T18:38:50.744Z,16.35
2019-03-24T18:41:22.041Z,16.70
2019-03-24T18:43:53.389Z,17.37
2019-03-24T18:46:24.465Z,15.88
2019-03-24T18:48:55.684Z,15.48
2019-03-24T18:51:27.008Z,16.00
2019-03-24T18:53:58.233Z,15.68
2019-03-24T18:56:29.704Z,16.70
2019-03-24T18:59:00.929Z,15.88
2019-03-24T19:01:32.178Z,16.62
2019-03-24T19:04:04.512Z,16.30
2019-03-24T19:06:36.270Z,15.15
2019-03-24T19:09:08.926Z,14.60
2019-03-24T19:11:40.251Z,14.55
2019-03-24T19:14:11.467Z,17.00
2019-03-24T19:16:43.561Z,16.70
2019-03-24T19:19:14.821Z,14.58
2019-03-24T19:21:47.763Z,13.90
2019-03-24T19:24:19.027Z,12.95
2019-03-24T19:26:50.274Z,14.45
2019-03-24T19:29:21.380Z,12.43
2019-03-24T19:31:54.419Z,11.38
2019-03-24T19:34:25.657Z,10.48
2019-03-24T19:36:57.670Z,11.63
2019-03-24T19:39:29.147Z,10.70
2019-03-24T19:42:00.386Z,10.85
2019-03-24T19:44:31.703Z,10.68
2019-03-24T19:47:03.914Z,10.48
2019-03-24T19:49:35.081Z,10.60
2019-03-24T19:52:07.416Z,10.32
2019-03-24T19:54:40.340Z,36.50
2019-03-24T19:57:13.202Z,13.32
2019-03-24T19:59:44.769Z,11.53
2019-03-24T20:02:16.068Z,12.13
2019-03-24T20:04:47.310Z,11.50
2019-03-24T20:07:18.699Z,10.70
2019-03-24T20:09:50.117Z,9.88
2019-03-24T20:12:23.770Z,10.18
2019-03-24T20:14:56.355Z,9.13
2019-03-24T20:17:27.593Z,9.43
2019-03-24T20:19:58.829Z,10.35
2019-03-24T20:22:30.268Z,9.75
2019-03-24T20:25:01.500Z,10.48
2019-03-24T20:27:33.055Z,9.65
2019-03-24T20:30:07.016Z,9.85
2019-03-24T20:32:39.358Z,10.95
2019-03-24T20:35:10.608Z,10.10
2019-03-24T20:37:41.814Z,9.60
2019-03-24T20:40:13.922Z,10.70
2019-03-24T20:42:45.513Z,10.18
2019-03-24T20:45:20.169Z,9.88
2019-03-24T20:47:51.901Z,10.55
2019-03-24T20:50:24.305Z,11.90
2019-03-24T20:53:04.038Z,12.10
2019-03-24T20:55:28.905Z,13.53
2019-03-24T20:58:01.710Z,12.28
2019-03-24T21:00:36.323Z,13.13
2019-03-24T21:03:07.982Z,13.88
2019-03-24T21:05:39.925Z,13.40
2019-03-24T21:08:11.256Z,14.45
2019-03-24T21:10:44.812Z,14.98
2019-03-24T21:13:16.176Z,15.85
2019-03-24T21:15:49.015Z,14.35
2019-03-24T21:18:20.327Z,15.30
2019-03-24T21:20:53.394Z,15.38
2019-03-24T21:23:30.046Z,16.82
2019-03-24T21:26:06.827Z,16.37
2019-03-24T21:28:39.251Z,16.95
2019-03-24T21:31:10.574Z,18.02
2019-03-24T21:33:42.542Z,18.75
2019-03-24T21:36:16.428Z,21.97
2019-03-24T21:38:47.617Z,23.77
2019-03-24T21:41:18.883Z,27.70
2019-03-24T21:43:50.103Z,29.15
2019-03-24T21:46:21.531Z,29.40
2019-03-24T21:48:52.853Z,28.40
2019-03-24T21:51:24.002Z,29.20
2019-03-24T21:53:55.197Z,28.90
2019-03-24T21:56:26.400Z,29.50
2019-03-24T21:58:57.664Z,31.55
2019-03-24T22:01:32.792Z,31.73
2019-03-24T22:04:05.613Z,31.05
2019-03-24T22:06:37.289Z,30.68
2019-03-24T22:09:08.494Z,32.65
2019-03-24T22:11:41.914Z,33.08
2019-03-24T22:14:15.481Z,33.35
2019-03-24T22:16:47.483Z,32.63
2019-03-24T22:19:18.909Z,33.18
2019-03-24T22:21:53.222Z,34.03
2019-03-24T22:24:24.645Z,33.45
2019-03-24T22:26:55.679Z,35.38
2019-03-24T22:29:27.199Z,37.25
2019-03-24T22:31:58.481Z,35.92
2019-03-24T22:34:34.128Z,35.17
2019-03-24T22:37:15.424Z,58.08
2019-03-24T22:39:38.275Z,34.83
2019-03-24T22:42:10.432Z,32.03
2019-03-24T22:44:44.428Z,33.90
2019-03-24T22:47:16.828Z,31.10
2019-03-24T22:49:49.667Z,30.08
2019-03-24T22:52:23.878Z,30.15
2019-03-24T22:54:56.048Z,31.48
2019-03-24T22:57:27.438Z,31.00
2019-03-24T22:59:58.747Z,30.75
2019-03-24T23:02:30.947Z,31.50
2019-03-24T23:05:02.544Z,32.58
2019-03-24T23:07:34.847Z,35.10
2019-03-24T23:10:06.152Z,33.50
2019-03-24T23:12:37.474Z,35.65
2019-03-24T23:15:08.583Z,31.05
2019-03-24T23:17:39.892Z,30.77
2019-03-24T23:20:11.205Z,32.03
2019-03-24T23:22:43.486Z,31.70
2019-03-24T23:25:14.708Z,31.02
2019-03-24T23:27:45.972Z,32.23
2019-03-24T23:30:17.112Z,31.37
2019-03-24T23:32:48.729Z,30.08
2019-03-24T23:35:21.075Z,30.80
2019-03-24T23:37:52.740Z,31.33
2019-03-24T23:40:26.980Z,30.65
2019-03-24T23:42:58.113Z,31.35
2019-03-24T23:45:29.412Z,31.62
2019-03-24T23:48:00.514Z,30.80
2019-03-24T23:50:31.698Z,31.55
2019-03-24T23:53:03.807Z,32.50
2019-03-24T23:55:34.848Z,33.88
2019-03-24T23:58:06.752Z,56.80
